16:40
Airports
History
Links
Donate
Help keep this website running!
PayPal
Bitcoin
Information on this page is community maintained and may be outdated or inaccurate and is intended for reference only or PC simulator navigating.
Always use approved charts for navigating.
06S
Acme Field
Acme Field (06S)
Deming, Washington, United States (98244)
4
Lat/Lng:48° 42' 34.41" N / 122° 10' 39.57" W
48.709558 / -122.177657
Elevation:301'ft 92mMSL
ID / ICAO:06S
Runways:1
Longest:(36-18) 434.5m 1,426ft Grass
Distance To
Airport ID:
Nearby VORs <50NM
Nearby NDBs
Nearby WeatherUpdated 07-25-17 15:53 GMT
Nearby weather at KBLI, Bellingham Intl located 17.4 nautical miles from 06S
Altimeter: 30.03
Visibility: 10.0 statute miles
Wind: 5 knots (140°)
Temp: 18°c 64°f
Humidity: 77.5%

METAR: KBLI 251553Z 14005KT 10SM CLR 18/14 A3003 RMK AO2 SLP176 T01780144

(Powered by phpweather)
Runway 36 / 18
Dimensions:434.5 x 22.9m 1426' x 75'ft
Surface:Grass
Runway 36 [A]Runway 18 [B]
Heading:020°TH 200°TH
Lat:
Lng:
48° 42' 27.95"N
122° 10' 43.32"W
48° 42' 40.86"N
122° 10' 35.81"W
User Notes and Comments
Google Map
Nearby Airports
(R) Acme Field 0.0 NM
WA12 W 270°
(R) Floathaven Airstrip 8.1 NM
WA90 W 281°
(R) Riverside 9.5 NM
4WA8 NNW 335°
(R) Kendall Airstrip 14.5 NM
WN08 N 11°
4 Israels Farm 14.5 NM
WA56 SSE 164°
(C) Bellingham Intl 17.4 NM
KBLI (WX) WNW 289°
(R) Bayview Farms 18.5 NM
WN51 SW 225°
VFR Chart
Flight Planning at SkyVector.com